sensor_id;sensor_type;location;lat;lon;timestamp;P1;durP1;ratioP1;P2;durP2;ratioP2
40611;SDS011;26317;44.894;20.286;2024-03-02T00:00:44;20.75;;;18.05;;
40611;SDS011;26317;44.894;20.286;2024-03-02T00:03:27;24.67;;;19.60;;
40611;SDS011;26317;44.894;20.286;2024-03-02T00:06:08;24.40;;;20.75;;
40611;SDS011;26317;44.894;20.286;2024-03-02T00:08:58;26.20;;;19.63;;
40611;SDS011;26317;44.894;20.286;2024-03-02T00:11:41;26.33;;;20.35;;
40611;SDS011;26317;44.894;20.286;2024-03-02T00:14:34;23.50;;;18.45;;
40611;SDS011;26317;44.894;20.286;2024-03-02T00:17:16;24.13;;;19.23;;
40611;SDS011;26317;44.894;20.286;2024-03-02T00:20:03;24.92;;;18.52;;
40611;SDS011;26317;44.894;20.286;2024-03-02T00:22:45;25.40;;;18.40;;
40611;SDS011;26317;44.894;20.286;2024-03-02T00:25:29;19.73;;;17.27;;
40611;SDS011;26317;44.894;20.286;2024-03-02T00:28:15;23.17;;;18.80;;
40611;SDS011;26317;44.894;20.286;2024-03-02T00:31:03;24.92;;;19.95;;
40611;SDS011;26317;44.894;20.286;2024-03-02T00:33:51;24.70;;;18.33;;
40611;SDS011;26317;44.894;20.286;2024-03-02T00:36:29;23.75;;;19.02;;
40611;SDS011;26317;44.894;20.286;2024-03-02T00:41:51;28.17;;;21.00;;
40611;SDS011;26317;44.894;20.286;2024-03-02T00:47:13;26.83;;;20.75;;
40611;SDS011;26317;44.894;20.286;2024-03-02T00:49:54;25.77;;;20.63;;
40611;SDS011;26317;44.894;20.286;2024-03-02T00:52:51;23.60;;;19.67;;
40611;SDS011;26317;44.894;20.286;2024-03-02T00:55:30;24.40;;;20.27;;
40611;SDS011;26317;44.894;20.286;2024-03-02T00:58:25;26.58;;;20.83;;
40611;SDS011;26317;44.894;20.286;2024-03-02T01:01:01;26.25;;;20.63;;
40611;SDS011;26317;44.894;20.286;2024-03-02T01:04:01;30.15;;;22.17;;
40611;SDS011;26317;44.894;20.286;2024-03-02T01:06:55;25.50;;;21.58;;
40611;SDS011;26317;44.894;20.286;2024-03-02T01:09:29;27.98;;;21.05;;
40611;SDS011;26317;44.894;20.286;2024-03-02T01:12:03;25.55;;;20.50;;
40611;SDS011;26317;44.894;20.286;2024-03-02T01:14:53;26.40;;;21.52;;
40611;SDS011;26317;44.894;20.286;2024-03-02T01:17:31;27.02;;;23.27;;
40611;SDS011;26317;44.894;20.286;2024-03-02T01:20:05;20.60;;;15.38;;
40611;SDS011;26317;44.894;20.286;2024-03-02T01:22:52;25.58;;;19.55;;
40611;SDS011;26317;44.894;20.286;2024-03-02T01:25:32;25.45;;;19.92;;
40611;SDS011;26317;44.894;20.286;2024-03-02T01:28:10;24.10;;;20.85;;
40611;SDS011;26317;44.894;20.286;2024-03-02T01:30:44;24.60;;;19.17;;
40611;SDS011;26317;44.894;20.286;2024-03-02T01:33:24;29.13;;;19.88;;
40611;SDS011;26317;44.894;20.286;2024-03-02T01:36:11;21.73;;;19.08;;
40611;SDS011;26317;44.894;20.286;2024-03-02T01:39:00;21.88;;;18.65;;
40611;SDS011;26317;44.894;20.286;2024-03-02T01:41:45;28.50;;;19.38;;
40611;SDS011;26317;44.894;20.286;2024-03-02T01:44:32;23.63;;;17.70;;
40611;SDS011;26317;44.894;20.286;2024-03-02T01:47:14;19.42;;;17.35;;
40611;SDS011;26317;44.894;20.286;2024-03-02T01:49:52;22.90;;;18.08;;
40611;SDS011;26317;44.894;20.286;2024-03-02T01:52:25;21.25;;;17.77;;
40611;SDS011;26317;44.894;20.286;2024-03-02T01:55:15;18.10;;;15.98;;
40611;SDS011;26317;44.894;20.286;2024-03-02T01:57:55;17.88;;;15.52;;
40611;SDS011;26317;44.894;20.286;2024-03-02T02:03:01;19.58;;;16.02;;
40611;SDS011;26317;44.894;20.286;2024-03-02T02:05:37;24.80;;;16.38;;
40611;SDS011;26317;44.894;20.286;2024-03-02T02:08:18;20.02;;;15.90;;
40611;SDS011;26317;44.894;20.286;2024-03-02T02:11:09;18.38;;;14.40;;
40611;SDS011;26317;44.894;20.286;2024-03-02T02:13:50;20.42;;;14.85;;
40611;SDS011;26317;44.894;20.286;2024-03-02T02:16:31;16.70;;;14.55;;
40611;SDS011;26317;44.894;20.286;2024-03-02T02:19:08;17.67;;;14.48;;
40611;SDS011;26317;44.894;20.286;2024-03-02T02:22:00;17.42;;;14.35;;
40611;SDS011;26317;44.894;20.286;2024-03-02T02:24:39;16.42;;;13.50;;
40611;SDS011;26317;44.894;20.286;2024-03-02T02:27:22;16.25;;;13.90;;
40611;SDS011;26317;44.894;20.286;2024-03-02T02:29:57;16.50;;;13.18;;
40611;SDS011;26317;44.894;20.286;2024-03-02T02:32:39;18.60;;;12.98;;
40611;SDS011;26317;44.894;20.286;2024-03-02T02:35:21;14.77;;;12.43;;
40611;SDS011;26317;44.894;20.286;2024-03-02T02:38:09;14.30;;;11.88;;
40611;SDS011;26317;44.894;20.286;2024-03-02T02:40:47;15.55;;;12.57;;
40611;SDS011;26317;44.894;20.286;2024-03-02T02:43:22;12.65;;;10.85;;
40611;SDS011;26317;44.894;20.286;2024-03-02T02:48:44;12.50;;;11.20;;
40611;SDS011;26317;44.894;20.286;2024-03-02T02:51:27;12.82;;;11.00;;
40611;SDS011;26317;44.894;20.286;2024-03-02T02:54:19;12.38;;;10.65;;
40611;SDS011;26317;44.894;20.286;2024-03-02T02:56:58;12.75;;;10.75;;
40611;SDS011;26317;44.894;20.286;2024-03-02T02:59:37;14.20;;;11.55;;
40611;SDS011;26317;44.894;20.286;2024-03-02T03:02:22;12.52;;;10.10;;
40611;SDS011;26317;44.894;20.286;2024-03-02T03:04:53;11.45;;;10.25;;
40611;SDS011;26317;44.894;20.286;2024-03-02T03:07:47;13.23;;;10.15;;
40611;SDS011;26317;44.894;20.286;2024-03-02T03:10:29;11.27;;;10.07;;
40611;SDS011;26317;44.894;20.286;2024-03-02T03:13:13;11.55;;;10.35;;
40611;SDS011;26317;44.894;20.286;2024-03-02T03:15:54;9.75;;;8.52;;
40611;SDS011;26317;44.894;20.286;2024-03-02T03:18:32;9.75;;;8.60;;
40611;SDS011;26317;44.894;20.286;2024-03-02T03:21:16;10.75;;;9.57;;
40611;SDS011;26317;44.894;20.286;2024-03-02T03:24:01;10.75;;;9.05;;
40611;SDS011;26317;44.894;20.286;2024-03-02T03:26:49;10.48;;;9.32;;
40611;SDS011;26317;44.894;20.286;2024-03-02T03:29:31;11.30;;;10.00;;
40611;SDS011;26317;44.894;20.286;2024-03-02T03:34:48;11.82;;;9.82;;
40611;SDS011;26317;44.894;20.286;2024-03-02T03:37:35;10.52;;;9.43;;
40611;SDS011;26317;44.894;20.286;2024-03-02T03:40:22;11.50;;;9.63;;
40611;SDS011;26317;44.894;20.286;2024-03-02T03:43:27;11.80;;;10.00;;
40611;SDS011;26317;44.894;20.286;2024-03-02T03:46:05;10.60;;;9.50;;
40611;SDS011;26317;44.894;20.286;2024-03-02T03:48:42;10.88;;;9.30;;
40611;SDS011;26317;44.894;20.286;2024-03-02T03:51:20;11.30;;;9.60;;
40611;SDS011;26317;44.894;20.286;2024-03-02T03:54:20;12.43;;;9.52;;
40611;SDS011;26317;44.894;20.286;2024-03-02T03:56:57;9.45;;;8.45;;
40611;SDS011;26317;44.894;20.286;2024-03-02T03:59:35;9.88;;;8.88;;
40611;SDS011;26317;44.894;20.286;2024-03-02T04:02:14;10.00;;;8.93;;
40611;SDS011;26317;44.894;20.286;2024-03-02T04:04:59;10.65;;;9.10;;
40611;SDS011;26317;44.894;20.286;2024-03-02T04:07:39;10.13;;;9.13;;
40611;SDS011;26317;44.894;20.286;2024-03-02T04:10:26;12.05;;;9.32;;
40611;SDS011;26317;44.894;20.286;2024-03-02T04:13:03;9.93;;;8.63;;
40611;SDS011;26317;44.894;20.286;2024-03-02T04:15:54;11.13;;;8.52;;
40611;SDS011;26317;44.894;20.286;2024-03-02T04:18:30;8.90;;;7.95;;
40611;SDS011;26317;44.894;20.286;2024-03-02T04:21:17;8.63;;;7.53;;
40611;SDS011;26317;44.894;20.286;2024-03-02T04:24:03;8.65;;;7.47;;
40611;SDS011;26317;44.894;20.286;2024-03-02T04:26:49;8.70;;;7.32;;
40611;SDS011;26317;44.894;20.286;2024-03-02T04:29:32;9.00;;;7.57;;
40611;SDS011;26317;44.894;20.286;2024-03-02T04:32:21;7.72;;;6.90;;
40611;SDS011;26317;44.894;20.286;2024-03-02T04:34:55;7.13;;;6.43;;
40611;SDS011;26317;44.894;20.286;2024-03-02T04:37:41;6.82;;;6.13;;
40611;SDS011;26317;44.894;20.286;2024-03-02T04:40:17;6.82;;;6.22;;
40611;SDS011;26317;44.894;20.286;2024-03-02T04:42:53;6.50;;;5.82;;
40611;SDS011;26317;44.894;20.286;2024-03-02T04:45:35;6.63;;;5.75;;
40611;SDS011;26317;44.894;20.286;2024-03-02T04:48:37;6.70;;;6.00;;
40611;SDS011;26317;44.894;20.286;2024-03-02T04:51:17;6.35;;;5.75;;
40611;SDS011;26317;44.894;20.286;2024-03-02T04:54:01;6.55;;;5.55;;
40611;SDS011;26317;44.894;20.286;2024-03-02T04:56:41;6.35;;;5.75;;
40611;SDS011;26317;44.894;20.286;2024-03-02T04:59:20;9.02;;;6.38;;
40611;SDS011;26317;44.894;20.286;2024-03-02T05:02:18;5.97;;;5.40;;
40611;SDS011;26317;44.894;20.286;2024-03-02T05:05:01;5.05;;;4.55;;
40611;SDS011;26317;44.894;20.286;2024-03-02T05:07:40;5.45;;;4.95;;
40611;SDS011;26317;44.894;20.286;2024-03-02T05:10:21;5.85;;;5.25;;
40611;SDS011;26317;44.894;20.286;2024-03-02T05:13:08;4.53;;;3.92;;
40611;SDS011;26317;44.894;20.286;2024-03-02T05:15:50;5.38;;;4.90;;
40611;SDS011;26317;44.894;20.286;2024-03-02T05:18:42;5.72;;;5.10;;
40611;SDS011;26317;44.894;20.286;2024-03-02T05:21:34;5.68;;;4.88;;
40611;SDS011;26317;44.894;20.286;2024-03-02T05:24:11;5.93;;;4.80;;
40611;SDS011;26317;44.894;20.286;2024-03-02T05:26:45;4.88;;;4.35;;
40611;SDS011;26317;44.894;20.286;2024-03-02T05:29:22;5.68;;;5.05;;
40611;SDS011;26317;44.894;20.286;2024-03-02T05:32:00;5.78;;;4.68;;
40611;SDS011;26317;44.894;20.286;2024-03-02T05:34:42;5.10;;;4.65;;
40611;SDS011;26317;44.894;20.286;2024-03-02T05:37:31;5.90;;;5.03;;
40611;SDS011;26317;44.894;20.286;2024-03-02T05:40:20;5.05;;;4.50;;
40611;SDS011;26317;44.894;20.286;2024-03-02T05:42:53;4.47;;;4.07;;
40611;SDS011;26317;44.894;20.286;2024-03-02T05:45:36;5.32;;;4.63;;
40611;SDS011;26317;44.894;20.286;2024-03-02T05:48:17;4.70;;;4.25;;
40611;SDS011;26317;44.894;20.286;2024-03-02T05:50:57;5.68;;;4.40;;
40611;SDS011;26317;44.894;20.286;2024-03-02T05:53:45;5.65;;;4.13;;
40611;SDS011;26317;44.894;20.286;2024-03-02T05:56:30;5.65;;;4.45;;
40611;SDS011;26317;44.894;20.286;2024-03-02T05:59:12;6.68;;;4.38;;
40611;SDS011;26317;44.894;20.286;2024-03-02T06:01:54;7.25;;;5.43;;
40611;SDS011;26317;44.894;20.286;2024-03-02T06:04:29;7.22;;;4.57;;
40611;SDS011;26317;44.894;20.286;2024-03-02T06:07:14;6.32;;;5.45;;
40611;SDS011;26317;44.894;20.286;2024-03-02T06:09:53;6.32;;;4.63;;
40611;SDS011;26317;44.894;20.286;2024-03-02T06:12:33;5.45;;;4.90;;
40611;SDS011;26317;44.894;20.286;2024-03-02T06:15:10;5.05;;;4.55;;
40611;SDS011;26317;44.894;20.286;2024-03-02T06:18:03;8.52;;;4.65;;
40611;SDS011;26317;44.894;20.286;2024-03-02T06:20:48;5.20;;;4.53;;
40611;SDS011;26317;44.894;20.286;2024-03-02T06:23:49;5.97;;;4.80;;
40611;SDS011;26317;44.894;20.286;2024-03-02T06:26:32;6.10;;;4.50;;
40611;SDS011;26317;44.894;20.286;2024-03-02T06:29:13;6.65;;;4.10;;
40611;SDS011;26317;44.894;20.286;2024-03-02T06:31:50;5.88;;;4.10;;
40611;SDS011;26317;44.894;20.286;2024-03-02T06:34:30;5.97;;;4.70;;
40611;SDS011;26317;44.894;20.286;2024-03-02T06:37:14;4.57;;;3.85;;
40611;SDS011;26317;44.894;20.286;2024-03-02T06:39:58;4.78;;;4.28;;
40611;SDS011;26317;44.894;20.286;2024-03-02T06:42:54;4.10;;;3.70;;
40611;SDS011;26317;44.894;20.286;2024-03-02T06:45:32;4.70;;;3.72;;
40611;SDS011;26317;44.894;20.286;2024-03-02T06:48:12;4.57;;;3.80;;
40611;SDS011;26317;44.894;20.286;2024-03-02T06:51:05;6.32;;;3.63;;
40611;SDS011;26317;44.894;20.286;2024-03-02T06:53:43;4.85;;;3.63;;
40611;SDS011;26317;44.894;20.286;2024-03-02T06:56:17;5.20;;;3.80;;
40611;SDS011;26317;44.894;20.286;2024-03-02T06:58:59;3.35;;;3.05;;
40611;SDS011;26317;44.894;20.286;2024-03-02T07:01:36;4.78;;;2.97;;
40611;SDS011;26317;44.894;20.286;2024-03-02T07:04:20;4.28;;;3.33;;
40611;SDS011;26317;44.894;20.286;2024-03-02T07:07:07;3.72;;;3.33;;
40611;SDS011;26317;44.894;20.286;2024-03-02T07:09:45;6.57;;;3.50;;
40611;SDS011;26317;44.894;20.286;2024-03-02T07:12:27;4.95;;;3.15;;
40611;SDS011;26317;44.894;20.286;2024-03-02T07:15:30;4.68;;;2.80;;
40611;SDS011;26317;44.894;20.286;2024-03-02T07:18:36;3.15;;;2.65;;
40611;SDS011;26317;44.894;20.286;2024-03-02T07:21:23;2.80;;;2.50;;
40611;SDS011;26317;44.894;20.286;2024-03-02T07:24:06;3.35;;;2.67;;
40611;SDS011;26317;44.894;20.286;2024-03-02T07:26:59;3.47;;;2.75;;
40611;SDS011;26317;44.894;20.286;2024-03-02T07:29:40;4.05;;;2.53;;
40611;SDS011;26317;44.894;20.286;2024-03-02T07:32:20;2.42;;;2.03;;
40611;SDS011;26317;44.894;20.286;2024-03-02T07:34:55;2.58;;;2.10;;
40611;SDS011;26317;44.894;20.286;2024-03-02T07:37:31;2.80;;;2.38;;
40611;SDS011;26317;44.894;20.286;2024-03-02T07:40:04;7.40;;;2.78;;
40611;SDS011;26317;44.894;20.286;2024-03-02T07:42:47;5.55;;;2.90;;
40611;SDS011;26317;44.894;20.286;2024-03-02T07:45:25;3.08;;;2.65;;
40611;SDS011;26317;44.894;20.286;2024-03-02T07:48:21;2.72;;;2.50;;
40611;SDS011;26317;44.894;20.286;2024-03-02T07:51:15;2.58;;;2.00;;
40611;SDS011;26317;44.894;20.286;2024-03-02T07:54:03;2.78;;;2.20;;
40611;SDS011;26317;44.894;20.286;2024-03-02T07:56:42;3.20;;;2.47;;
40611;SDS011;26317;44.894;20.286;2024-03-02T07:59:21;3.22;;;2.38;;
40611;SDS011;26317;44.894;20.286;2024-03-02T08:02:10;4.60;;;2.97;;
40611;SDS011;26317;44.894;20.286;2024-03-02T08:05:01;3.83;;;2.92;;
40611;SDS011;26317;44.894;20.286;2024-03-02T08:07:43;3.47;;;2.65;;
40611;SDS011;26317;44.894;20.286;2024-03-02T08:10:22;3.10;;;2.03;;
40611;SDS011;26317;44.894;20.286;2024-03-02T08:13:00;3.30;;;2.28;;
40611;SDS011;26317;44.894;20.286;2024-03-02T08:15:32;2.38;;;2.00;;
40611;SDS011;26317;44.894;20.286;2024-03-02T08:18:10;2.92;;;2.20;;
40611;SDS011;26317;44.894;20.286;2024-03-02T08:21:04;4.65;;;2.65;;
40611;SDS011;26317;44.894;20.286;2024-03-02T08:23:39;5.53;;;3.20;;
40611;SDS011;26317;44.894;20.286;2024-03-02T08:26:15;5.13;;;3.30;;
40611;SDS011;26317;44.894;20.286;2024-03-02T08:28:54;4.38;;;3.03;;
40611;SDS011;26317;44.894;20.286;2024-03-02T08:31:37;3.78;;;3.17;;
40611;SDS011;26317;44.894;20.286;2024-03-02T08:34:14;8.82;;;4.40;;
40611;SDS011;26317;44.894;20.286;2024-03-02T08:37:08;7.50;;;5.50;;
40611;SDS011;26317;44.894;20.286;2024-03-02T08:39:44;7.55;;;5.10;;
40611;SDS011;26317;44.894;20.286;2024-03-02T08:42:38;3.40;;;2.78;;
40611;SDS011;26317;44.894;20.286;2024-03-02T08:45:23;4.53;;;3.33;;
40611;SDS011;26317;44.894;20.286;2024-03-02T08:47:59;6.47;;;3.55;;
40611;SDS011;26317;44.894;20.286;2024-03-02T08:50:33;7.53;;;5.25;;
40611;SDS011;26317;44.894;20.286;2024-03-02T08:53:11;6.75;;;3.85;;
40611;SDS011;26317;44.894;20.286;2024-03-02T08:55:52;3.92;;;3.53;;
40611;SDS011;26317;44.894;20.286;2024-03-02T08:58:30;3.95;;;3.38;;
40611;SDS011;26317;44.894;20.286;2024-03-02T09:01:14;5.00;;;3.10;;
40611;SDS011;26317;44.894;20.286;2024-03-02T09:03:50;5.60;;;4.05;;
40611;SDS011;26317;44.894;20.286;2024-03-02T09:06:31;5.30;;;3.95;;
40611;SDS011;26317;44.894;20.286;2024-03-02T09:09:13;6.63;;;4.40;;
40611;SDS011;26317;44.894;20.286;2024-03-02T09:11:54;5.13;;;3.65;;
40611;SDS011;26317;44.894;20.286;2024-03-02T09:14:28;6.57;;;3.75;;
40611;SDS011;26317;44.894;20.286;2024-03-02T09:17:10;6.25;;;3.92;;
40611;SDS011;26317;44.894;20.286;2024-03-02T09:19:50;4.75;;;3.45;;
40611;SDS011;26317;44.894;20.286;2024-03-02T09:22:28;5.07;;;3.70;;
40611;SDS011;26317;44.894;20.286;2024-03-02T09:25:07;4.85;;;3.67;;
40611;SDS011;26317;44.894;20.286;2024-03-02T09:27:44;4.90;;;4.05;;
40611;SDS011;26317;44.894;20.286;2024-03-02T09:30:25;5.80;;;3.35;;
40611;SDS011;26317;44.894;20.286;2024-03-02T09:33:12;4.05;;;3.33;;
40611;SDS011;26317;44.894;20.286;2024-03-02T09:35:53;5.40;;;3.55;;
40611;SDS011;26317;44.894;20.286;2024-03-02T09:38:46;6.03;;;3.30;;
40611;SDS011;26317;44.894;20.286;2024-03-02T09:41:31;9.45;;;5.53;;
40611;SDS011;26317;44.894;20.286;2024-03-02T09:44:06;6.30;;;3.80;;
40611;SDS011;26317;44.894;20.286;2024-03-02T09:46:50;5.07;;;4.00;;
40611;SDS011;26317;44.894;20.286;2024-03-02T09:49:35;10.98;;;4.10;;
40611;SDS011;26317;44.894;20.286;2024-03-02T09:52:08;5.75;;;3.75;;
40611;SDS011;26317;44.894;20.286;2024-03-02T09:54:43;6.35;;;3.75;;
40611;SDS011;26317;44.894;20.286;2024-03-02T09:57:33;5.55;;;4.07;;
40611;SDS011;26317;44.894;20.286;2024-03-02T10:00:13;5.93;;;4.70;;
40611;SDS011;26317;44.894;20.286;2024-03-02T10:02:56;4.38;;;3.80;;
40611;SDS011;26317;44.894;20.286;2024-03-02T10:05:44;7.50;;;4.13;;
40611;SDS011;26317;44.894;20.286;2024-03-02T10:08:30;6.47;;;3.63;;
40611;SDS011;26317;44.894;20.286;2024-03-02T10:11:14;11.68;;;4.53;;
40611;SDS011;26317;44.894;20.286;2024-03-02T10:14:23;5.22;;;4.05;;
40611;SDS011;26317;44.894;20.286;2024-03-02T10:17:16;5.88;;;3.50;;
40611;SDS011;26317;44.894;20.286;2024-03-02T10:19:54;9.13;;;4.15;;
40611;SDS011;26317;44.894;20.286;2024-03-02T10:22:31;7.45;;;3.72;;
40611;SDS011;26317;44.894;20.286;2024-03-02T10:25:05;10.80;;;3.72;;
40611;SDS011;26317;44.894;20.286;2024-03-02T10:28:04;5.35;;;4.15;;
40611;SDS011;26317;44.894;20.286;2024-03-02T10:30:56;6.30;;;3.58;;
40611;SDS011;26317;44.894;20.286;2024-03-02T10:33:39;7.05;;;4.95;;
40611;SDS011;26317;44.894;20.286;2024-03-02T10:36:27;4.40;;;3.40;;
40611;SDS011;26317;44.894;20.286;2024-03-02T10:39:02;7.25;;;4.13;;
40611;SDS011;26317;44.894;20.286;2024-03-02T10:41:43;6.05;;;3.60;;
40611;SDS011;26317;44.894;20.286;2024-03-02T10:44:21;4.22;;;3.53;;
40611;SDS011;26317;44.894;20.286;2024-03-02T10:47:03;6.43;;;4.07;;
40611;SDS011;26317;44.894;20.286;2024-03-02T10:49:44;7.75;;;3.88;;
40611;SDS011;26317;44.894;20.286;2024-03-02T10:52:31;8.98;;;4.32;;
40611;SDS011;26317;44.894;20.286;2024-03-02T10:55:09;5.70;;;3.70;;
40611;SDS011;26317;44.894;20.286;2024-03-02T10:57:52;4.78;;;3.97;;
40611;SDS011;26317;44.894;20.286;2024-03-02T11:00:33;5.83;;;4.37;;
40611;SDS011;26317;44.894;20.286;2024-03-02T11:03:18;6.10;;;4.15;;
40611;SDS011;26317;44.894;20.286;2024-03-02T11:06:19;4.82;;;3.53;;
40611;SDS011;26317;44.894;20.286;2024-03-02T11:09:00;8.85;;;4.53;;
40611;SDS011;26317;44.894;20.286;2024-03-02T11:11:46;6.90;;;3.88;;
40611;SDS011;26317;44.894;20.286;2024-03-02T11:14:37;5.85;;;4.00;;
40611;SDS011;26317;44.894;20.286;2024-03-02T11:17:14;5.18;;;3.90;;
40611;SDS011;26317;44.894;20.286;2024-03-02T11:20:00;14.60;;;5.03;;
40611;SDS011;26317;44.894;20.286;2024-03-02T11:22:43;8.75;;;5.10;;
40611;SDS011;26317;44.894;20.286;2024-03-02T11:25:27;5.80;;;4.47;;
40611;SDS011;26317;44.894;20.286;2024-03-02T11:28:09;5.50;;;4.03;;
40611;SDS011;26317;44.894;20.286;2024-03-02T11:30:55;5.82;;;4.45;;
40611;SDS011;26317;44.894;20.286;2024-03-02T11:33:35;7.65;;;5.05;;
40611;SDS011;26317;44.894;20.286;2024-03-02T11:36:13;8.00;;;4.18;;
40611;SDS011;26317;44.894;20.286;2024-03-02T11:38:57;6.75;;;4.38;;
40611;SDS011;26317;44.894;20.286;2024-03-02T11:41:41;8.25;;;4.55;;
40611;SDS011;26317;44.894;20.286;2024-03-02T11:46:58;9.23;;;5.07;;
40611;SDS011;26317;44.894;20.286;2024-03-02T11:49:40;6.93;;;4.93;;
40611;SDS011;26317;44.894;20.286;2024-03-02T11:52:24;5.22;;;4.15;;
40611;SDS011;26317;44.894;20.286;2024-03-02T11:55:08;8.35;;;4.28;;
40611;SDS011;26317;44.894;20.286;2024-03-02T11:57:44;10.27;;;4.82;;
40611;SDS011;26317;44.894;20.286;2024-03-02T12:00:23;6.43;;;4.28;;
40611;SDS011;26317;44.894;20.286;2024-03-02T12:03:01;6.57;;;4.05;;
40611;SDS011;26317;44.894;20.286;2024-03-02T12:05:42;7.97;;;4.70;;
40611;SDS011;26317;44.894;20.286;2024-03-02T12:08:38;7.07;;;4.72;;
40611;SDS011;26317;44.894;20.286;2024-03-02T12:11:16;10.55;;;5.03;;
40611;SDS011;26317;44.894;20.286;2024-03-02T12:13:57;5.18;;;4.28;;
40611;SDS011;26317;44.894;20.286;2024-03-02T12:16:29;5.30;;;4.28;;
40611;SDS011;26317;44.894;20.286;2024-03-02T12:19:04;9.77;;;6.15;;
40611;SDS011;26317;44.894;20.286;2024-03-02T12:21:41;5.45;;;4.65;;
40611;SDS011;26317;44.894;20.286;2024-03-02T12:24:42;6.35;;;4.40;;
40611;SDS011;26317;44.894;20.286;2024-03-02T12:27:38;12.63;;;5.07;;
40611;SDS011;26317;44.894;20.286;2024-03-02T12:30:18;9.25;;;5.50;;
40611;SDS011;26317;44.894;20.286;2024-03-02T12:33:02;7.10;;;4.65;;
40611;SDS011;26317;44.894;20.286;2024-03-02T12:35:48;9.32;;;5.15;;
40611;SDS011;26317;44.894;20.286;2024-03-02T12:38:25;9.93;;;5.25;;
40611;SDS011;26317;44.894;20.286;2024-03-02T12:41:03;7.22;;;5.20;;
40611;SDS011;26317;44.894;20.286;2024-03-02T12:43:43;5.75;;;5.18;;
40611;SDS011;26317;44.894;20.286;2024-03-02T12:46:25;11.60;;;6.43;;
40611;SDS011;26317;44.894;20.286;2024-03-02T12:49:04;9.38;;;5.75;;
40611;SDS011;26317;44.894;20.286;2024-03-02T12:51:52;8.00;;;4.75;;
40611;SDS011;26317;44.894;20.286;2024-03-02T12:54:29;6.25;;;5.00;;
40611;SDS011;26317;44.894;20.286;2024-03-02T12:57:24;9.40;;;5.43;;
40611;SDS011;26317;44.894;20.286;2024-03-02T13:00:17;5.68;;;4.00;;
40611;SDS011;26317;44.894;20.286;2024-03-02T13:03:06;8.68;;;4.45;;
40611;SDS011;26317;44.894;20.286;2024-03-02T13:05:47;7.65;;;4.93;;
40611;SDS011;26317;44.894;20.286;2024-03-02T13:08:31;9.98;;;5.22;;
40611;SDS011;26317;44.894;20.286;2024-03-02T13:11:10;6.95;;;4.75;;
40611;SDS011;26317;44.894;20.286;2024-03-02T13:13:48;6.55;;;5.78;;
40611;SDS011;26317;44.894;20.286;2024-03-02T13:16:24;8.75;;;5.35;;
40611;SDS011;26317;44.894;20.286;2024-03-02T13:19:15;18.90;;;5.50;;
40611;SDS011;26317;44.894;20.286;2024-03-02T13:21:52;7.38;;;5.05;;
40611;SDS011;26317;44.894;20.286;2024-03-02T13:24:32;8.18;;;5.00;;
40611;SDS011;26317;44.894;20.286;2024-03-02T13:27:14;7.50;;;4.90;;
40611;SDS011;26317;44.894;20.286;2024-03-02T13:29:54;10.93;;;5.00;;
40611;SDS011;26317;44.894;20.286;2024-03-02T13:32:32;6.20;;;4.72;;
40611;SDS011;26317;44.894;20.286;2024-03-02T13:35:11;7.70;;;5.30;;
40611;SDS011;26317;44.894;20.286;2024-03-02T13:37:53;8.30;;;4.93;;
40611;SDS011;26317;44.894;20.286;2024-03-02T13:40:34;7.30;;;5.28;;
40611;SDS011;26317;44.894;20.286;2024-03-02T13:43:16;7.93;;;5.65;;
40611;SDS011;26317;44.894;20.286;2024-03-02T13:46:08;8.98;;;6.70;;
40611;SDS011;26317;44.894;20.286;2024-03-02T13:49:02;8.32;;;5.68;;
40611;SDS011;26317;44.894;20.286;2024-03-02T13:51:48;8.40;;;4.95;;
40611;SDS011;26317;44.894;20.286;2024-03-02T13:54:25;10.38;;;6.35;;
40611;SDS011;26317;44.894;20.286;2024-03-02T13:57:10;7.10;;;5.78;;
40611;SDS011;26317;44.894;20.286;2024-03-02T13:59:55;10.65;;;7.18;;
40611;SDS011;26317;44.894;20.286;2024-03-02T14:02:29;9.20;;;6.63;;
40611;SDS011;26317;44.894;20.286;2024-03-02T14:27:28;7.07;;;5.93;;
40611;SDS011;26317;44.894;20.286;2024-03-02T14:33:16;9.10;;;5.72;;
40611;SDS011;26317;44.894;20.286;2024-03-02T14:35:52;9.30;;;5.93;;
40611;SDS011;26317;44.894;20.286;2024-03-02T14:38:26;10.60;;;6.60;;
40611;SDS011;26317;44.894;20.286;2024-03-02T14:41:21;9.45;;;5.57;;
40611;SDS011;26317;44.894;20.286;2024-03-02T14:44:02;7.47;;;5.38;;
40611;SDS011;26317;44.894;20.286;2024-03-02T14:46:42;8.80;;;6.32;;
40611;SDS011;26317;44.894;20.286;2024-03-02T14:49:22;10.53;;;7.50;;
40611;SDS011;26317;44.894;20.286;2024-03-02T14:52:07;10.88;;;6.30;;
40611;SDS011;26317;44.894;20.286;2024-03-02T14:54:43;8.20;;;5.75;;
40611;SDS011;26317;44.894;20.286;2024-03-02T14:57:24;7.50;;;5.68;;
40611;SDS011;26317;44.894;20.286;2024-03-02T15:00:10;7.30;;;5.50;;
40611;SDS011;26317;44.894;20.286;2024-03-02T15:03:04;7.22;;;5.15;;
40611;SDS011;26317;44.894;20.286;2024-03-02T15:05:41;11.35;;;5.25;;
40611;SDS011;26317;44.894;20.286;2024-03-02T15:08:16;6.38;;;5.72;;
40611;SDS011;26317;44.894;20.286;2024-03-02T15:10:58;10.15;;;6.13;;
40611;SDS011;26317;44.894;20.286;2024-03-02T15:13:39;11.75;;;6.10;;
40611;SDS011;26317;44.894;20.286;2024-03-02T15:16:32;7.50;;;6.72;;
40611;SDS011;26317;44.894;20.286;2024-03-02T15:19:06;14.30;;;8.07;;
40611;SDS011;26317;44.894;20.286;2024-03-02T15:21:48;10.68;;;7.60;;
40611;SDS011;26317;44.894;20.286;2024-03-02T15:24:25;14.95;;;6.80;;
40611;SDS011;26317;44.894;20.286;2024-03-02T15:27:10;9.77;;;6.97;;
40611;SDS011;26317;44.894;20.286;2024-03-02T15:30:05;8.95;;;6.50;;
40611;SDS011;26317;44.894;20.286;2024-03-02T15:32:52;11.18;;;6.90;;
40611;SDS011;26317;44.894;20.286;2024-03-02T15:35:31;8.55;;;5.78;;
40611;SDS011;26317;44.894;20.286;2024-03-02T15:38:13;7.03;;;5.28;;
40611;SDS011;26317;44.894;20.286;2024-03-02T15:40:58;14.48;;;5.70;;
40611;SDS011;26317;44.894;20.286;2024-03-02T15:43:42;9.43;;;5.80;;
40611;SDS011;26317;44.894;20.286;2024-03-02T15:46:33;9.50;;;6.88;;
40611;SDS011;26317;44.894;20.286;2024-03-02T15:49:21;9.63;;;6.13;;
40611;SDS011;26317;44.894;20.286;2024-03-02T15:52:01;9.43;;;6.10;;
40611;SDS011;26317;44.894;20.286;2024-03-02T15:54:54;8.38;;;5.53;;
40611;SDS011;26317;44.894;20.286;2024-03-02T15:57:39;9.05;;;6.03;;
40611;SDS011;26317;44.894;20.286;2024-03-02T16:00:19;8.40;;;5.47;;
40611;SDS011;26317;44.894;20.286;2024-03-02T16:02:54;6.90;;;5.78;;
40611;SDS011;26317;44.894;20.286;2024-03-02T16:05:39;10.10;;;5.93;;
40611;SDS011;26317;44.894;20.286;2024-03-02T16:08:22;7.53;;;5.72;;
40611;SDS011;26317;44.894;20.286;2024-03-02T16:11:02;9.02;;;6.22;;
40611;SDS011;26317;44.894;20.286;2024-03-02T16:13:37;8.30;;;6.32;;
40611;SDS011;26317;44.894;20.286;2024-03-02T16:16:21;10.88;;;7.22;;
40611;SDS011;26317;44.894;20.286;2024-03-02T16:18:55;12.50;;;8.00;;
40611;SDS011;26317;44.894;20.286;2024-03-02T16:22:02;11.45;;;8.18;;
40611;SDS011;26317;44.894;20.286;2024-03-02T16:24:46;13.00;;;8.68;;
40611;SDS011;26317;44.894;20.286;2024-03-02T16:27:32;13.30;;;9.02;;
40611;SDS011;26317;44.894;20.286;2024-03-02T16:30:14;13.85;;;8.00;;
40611;SDS011;26317;44.894;20.286;2024-03-02T16:32:58;13.38;;;7.80;;
40611;SDS011;26317;44.894;20.286;2024-03-02T16:35:37;12.35;;;7.45;;
40611;SDS011;26317;44.894;20.286;2024-03-02T16:38:34;12.00;;;7.50;;
40611;SDS011;26317;44.894;20.286;2024-03-02T16:41:13;9.80;;;7.10;;